createdAt,value
2023-01-22T00:00:04.692Z,339.80
2023-01-22T00:01:04.642Z,340.50
2023-01-22T00:02:04.641Z,346.70
2023-01-22T00:03:04.629Z,341.80
2023-01-22T00:04:04.646Z,350.10
2023-01-22T00:05:04.662Z,342.40
2023-01-22T00:06:04.590Z,286.00
2023-01-22T00:07:04.578Z,234.10
2023-01-22T00:08:04.556Z,222.60
2023-01-22T00:09:04.534Z,164.60
2023-01-22T00:10:04.569Z,184.00
2023-01-22T00:11:04.535Z,179.60
2023-01-22T00:12:04.514Z,130.60
2023-01-22T00:13:04.514Z,79.00
2023-01-22T00:14:04.523Z,86.10
2023-01-22T00:15:04.519Z,111.60
2023-01-22T00:16:04.525Z,105.70
2023-01-22T00:17:04.483Z,129.20
2023-01-22T00:18:04.447Z,277.30
2023-01-22T00:19:04.417Z,270.10
2023-01-22T00:20:04.469Z,341.50
2023-01-22T00:21:04.417Z,364.00
2023-01-22T00:22:04.417Z,325.70
2023-01-22T00:23:04.392Z,337.80
2023-01-22T00:24:04.414Z,352.60
2023-01-22T00:25:04.430Z,341.50
2023-01-22T00:26:04.401Z,347.00
2023-01-22T00:27:04.349Z,367.80
2023-01-22T00:28:04.347Z,358.40
2023-01-22T00:29:04.347Z,348.80
2023-01-22T00:30:04.373Z,342.70
2023-01-22T00:31:04.404Z,351.70
2023-01-22T00:32:04.397Z,340.90
2023-01-22T00:33:04.298Z,347.60
2023-01-22T00:34:04.278Z,360.70
2023-01-22T00:35:04.298Z,378.40
2023-01-22T00:36:04.234Z,374.70
2023-01-22T00:37:04.215Z,356.70
2023-01-22T00:38:04.230Z,342.90
2023-01-22T00:39:04.236Z,332.50
2023-01-22T00:40:04.253Z,350.40
2023-01-22T00:41:04.185Z,149.00
2023-01-22T00:42:04.170Z,212.80
2023-01-22T00:43:04.154Z,106.90
2023-01-22T00:44:04.152Z,98.10
2023-01-22T00:45:04.207Z,89.40
2023-01-22T00:46:04.132Z,130.20
2023-01-22T00:47:04.112Z,114.50
2023-01-22T00:48:04.100Z,96.70
2023-01-22T00:49:04.095Z,318.90
2023-01-22T00:50:04.142Z,364.50
2023-01-22T00:51:04.186Z,360.60
2023-01-22T00:52:04.060Z,325.10
2023-01-22T00:53:04.061Z,311.10
2023-01-22T00:54:04.039Z,319.00
2023-01-22T00:55:04.057Z,317.20
2023-01-22T00:56:04.006Z,320.20
2023-01-22T00:57:04.026Z,324.80
2023-01-22T00:58:04.000Z,320.80
2023-01-22T00:59:03.965Z,332.80
2023-01-22T01:00:04.025Z,137.60
2023-01-22T01:01:04.001Z,94.60
2023-01-22T01:02:04.030Z,131.80
2023-01-22T01:03:03.950Z,160.90
2023-01-22T01:04:03.918Z,122.20
2023-01-22T01:05:03.944Z,83.40
2023-01-22T01:06:03.893Z,210.20
2023-01-22T01:07:03.874Z,330.80
2023-01-22T01:08:03.872Z,454.40
2023-01-22T01:09:03.882Z,368.30
2023-01-22T01:10:03.904Z,416.20
2023-01-22T01:11:03.851Z,360.40
2023-01-22T01:12:03.839Z,341.40
2023-01-22T01:13:03.808Z,376.90
2023-01-22T01:14:03.824Z,365.10
2023-01-22T01:15:03.854Z,380.50
2023-01-22T01:16:03.901Z,353.90
2023-01-22T01:17:03.783Z,369.90
2023-01-22T01:18:03.763Z,376.90
2023-01-22T01:19:03.765Z,367.20
2023-01-22T01:20:03.788Z,313.10
2023-01-22T01:21:03.745Z,320.90
2023-01-22T01:22:03.718Z,250.40
2023-01-22T01:23:03.696Z,245.20
2023-01-22T01:24:03.708Z,189.40
2023-01-22T01:25:03.730Z,222.30
2023-01-22T01:26:03.684Z,187.40
2023-01-22T01:27:03.652Z,248.30
2023-01-22T01:28:03.649Z,248.60
2023-01-22T01:29:03.644Z,182.70
2023-01-22T01:30:03.694Z,207.20
2023-01-22T01:31:03.756Z,175.50
2023-01-22T01:32:03.713Z,249.80
2023-01-22T01:33:03.603Z,207.30
2023-01-22T01:34:03.591Z,148.30
2023-01-22T01:35:03.606Z,239.60
2023-01-22T01:36:03.547Z,175.00
2023-01-22T01:37:03.552Z,316.60
2023-01-22T01:38:03.541Z,585.30
2023-01-22T01:39:03.539Z,513.70
2023-01-22T01:40:03.582Z,394.90
2023-01-22T01:41:03.510Z,388.60
2023-01-22T01:42:03.496Z,383.70
2023-01-22T01:43:03.492Z,393.60
2023-01-22T01:44:03.484Z,416.60
2023-01-22T01:45:03.505Z,432.10
2023-01-22T01:46:03.465Z,378.10
2023-01-22T01:47:03.444Z,435.70
2023-01-22T01:48:03.443Z,387.40
2023-01-22T01:49:03.424Z,396.00
2023-01-22T01:50:03.406Z,397.70
2023-01-22T01:51:03.501Z,395.00
2023-01-22T01:52:03.383Z,405.90
2023-01-22T01:53:03.385Z,404.70
2023-01-22T01:54:03.385Z,403.40
2023-01-22T01:55:03.350Z,401.20
2023-01-22T01:56:03.398Z,410.00
2023-01-22T01:57:03.331Z,442.20
2023-01-22T01:58:03.345Z,412.00
2023-01-22T01:59:03.314Z,420.10
2023-01-22T02:00:03.305Z,406.20
2023-01-22T02:01:03.373Z,412.40
2023-01-22T02:02:03.298Z,414.20
2023-01-22T02:03:03.248Z,412.80
2023-01-22T02:04:03.242Z,394.30
2023-01-22T02:05:03.247Z,394.60
2023-01-22T02:06:03.297Z,406.30
2023-01-22T02:07:03.212Z,402.00
2023-01-22T02:08:03.188Z,398.10
2023-01-22T02:09:03.178Z,413.40
2023-01-22T02:10:03.183Z,222.00
2023-01-22T02:11:03.223Z,256.90
2023-01-22T02:12:03.158Z,263.80
2023-01-22T02:13:03.144Z,218.60
2023-01-22T02:14:03.148Z,189.00
2023-01-22T02:15:03.130Z,113.80
2023-01-22T02:16:03.236Z,106.80
2023-01-22T02:17:03.102Z,90.80
2023-01-22T02:18:03.089Z,110.00
2023-01-22T02:19:03.074Z,81.60
2023-01-22T02:20:03.067Z,81.70
2023-01-22T02:21:03.104Z,97.80
2023-01-22T02:22:03.043Z,97.00
2023-01-22T02:23:03.032Z,108.40
2023-01-22T02:24:03.030Z,139.10
2023-01-22T02:25:03.015Z,152.50
2023-01-22T02:26:03.043Z,154.80
2023-01-22T02:27:02.971Z,123.30
2023-01-22T02:28:02.972Z,116.90
2023-01-22T02:29:02.969Z,105.70
2023-01-22T02:30:02.957Z,347.10
2023-01-22T02:31:03.055Z,416.20
2023-01-22T02:32:02.940Z,590.30
2023-01-22T02:33:02.927Z,425.10
2023-01-22T02:34:02.903Z,427.00
2023-01-22T02:35:02.913Z,429.60
2023-01-22T02:36:02.916Z,432.70
2023-01-22T02:37:02.871Z,424.90
2023-01-22T02:38:02.881Z,430.50
2023-01-22T02:39:02.873Z,402.60
2023-01-22T02:40:02.840Z,399.90
2023-01-22T02:41:02.884Z,405.00
2023-01-22T02:42:02.827Z,365.80
2023-01-22T02:43:02.800Z,378.70
2023-01-22T02:44:02.800Z,404.10
2023-01-22T02:45:02.768Z,399.40
2023-01-22T02:46:02.916Z,405.30
2023-01-22T02:47:02.774Z,415.40
2023-01-22T02:48:02.753Z,421.80
2023-01-22T02:49:02.744Z,413.90
2023-01-22T02:50:02.718Z,412.70
2023-01-22T02:51:02.807Z,221.20
2023-01-22T02:52:02.707Z,273.50
2023-01-22T02:53:02.733Z,177.40
2023-01-22T02:54:02.688Z,144.00
2023-01-22T02:55:02.651Z,158.70
2023-01-22T02:56:02.690Z,163.90
2023-01-22T02:57:02.630Z,165.80
2023-01-22T02:58:02.626Z,119.30
2023-01-22T02:59:02.631Z,121.50
2023-01-22T03:00:02.642Z,308.50
2023-01-22T03:01:02.669Z,505.90
2023-01-22T03:02:02.662Z,389.40
2023-01-22T03:03:02.588Z,454.10
2023-01-22T03:04:02.567Z,443.00
2023-01-22T03:05:02.579Z,446.30
2023-01-22T03:06:02.593Z,437.30
2023-01-22T03:07:02.520Z,436.80
2023-01-22T03:08:02.519Z,440.60
2023-01-22T03:09:02.554Z,414.50
2023-01-22T03:10:02.513Z,397.30
2023-01-22T03:11:02.515Z,451.60
2023-01-22T03:12:02.476Z,473.00
2023-01-22T03:13:02.467Z,397.30
2023-01-22T03:14:02.468Z,432.50
2023-01-22T03:15:02.434Z,457.10
2023-01-22T03:16:02.487Z,426.10
2023-01-22T03:17:02.423Z,443.20
2023-01-22T03:18:02.406Z,443.10
2023-01-22T03:19:02.379Z,418.60
2023-01-22T03:20:02.393Z,384.50
2023-01-22T03:21:02.486Z,386.10
2023-01-22T03:22:02.394Z,424.30
2023-01-22T03:23:02.332Z,361.00
2023-01-22T03:24:02.331Z,385.20
2023-01-22T03:25:02.319Z,384.70
2023-01-22T03:26:02.372Z,371.20
2023-01-22T03:27:02.306Z,393.50
2023-01-22T03:28:02.331Z,383.30
2023-01-22T03:29:02.272Z,414.10
2023-01-22T03:30:02.295Z,396.60
2023-01-22T03:31:02.324Z,413.30
2023-01-22T03:32:02.349Z,378.00
2023-01-22T03:33:02.256Z,388.70
2023-01-22T03:34:02.220Z,398.80
2023-01-22T03:35:02.229Z,402.30
2023-01-22T03:36:02.248Z,395.90
2023-01-22T03:37:02.204Z,408.50
2023-01-22T03:38:02.167Z,414.20
2023-01-22T03:39:02.158Z,395.70
2023-01-22T03:40:02.169Z,421.30
2023-01-22T03:41:02.190Z,390.00
2023-01-22T03:42:02.126Z,419.50
2023-01-22T03:43:02.132Z,398.10
2023-01-22T03:44:02.125Z,398.40
2023-01-22T03:45:02.098Z,413.00
2023-01-22T03:46:02.201Z,437.40
2023-01-22T03:47:02.070Z,431.70
2023-01-22T03:48:02.093Z,462.10
2023-01-22T03:49:02.063Z,463.20
2023-01-22T03:50:02.048Z,442.30
2023-01-22T03:51:02.089Z,432.00
2023-01-22T03:52:02.011Z,412.00
2023-01-22T03:53:02.010Z,451.70
2023-01-22T03:54:02.021Z,436.20
2023-01-22T03:55:01.980Z,445.00
2023-01-22T03:56:02.030Z,409.40
2023-01-22T03:57:01.972Z,385.30
2023-01-22T03:58:01.969Z,422.10
2023-01-22T03:59:01.939Z,402.50
2023-01-22T04:00:01.941Z,363.00
2023-01-22T04:01:02.039Z,229.90
2023-01-22T04:02:01.949Z,185.90
2023-01-22T04:03:01.917Z,192.10
2023-01-22T04:04:01.897Z,102.90
2023-01-22T04:05:01.887Z,121.50
2023-01-22T04:06:01.925Z,108.00
2023-01-22T04:07:01.838Z,126.50
2023-01-22T04:08:01.845Z,120.60
2023-01-22T04:09:01.831Z,304.50
2023-01-22T04:10:01.838Z,409.10
2023-01-22T04:11:01.866Z,395.00
2023-01-22T04:12:01.810Z,418.40
2023-01-22T04:13:01.781Z,421.90
2023-01-22T04:14:01.773Z,404.40
2023-01-22T04:15:01.750Z,444.90
2023-01-22T04:16:01.830Z,406.10
2023-01-22T04:17:01.718Z,407.70
2023-01-22T04:18:01.705Z,438.10
2023-01-22T04:19:01.697Z,445.80
2023-01-22T04:20:01.697Z,402.90
2023-01-22T04:21:01.758Z,430.70
2023-01-22T04:22:01.671Z,410.80
2023-01-22T04:23:01.672Z,409.30
2023-01-22T04:24:01.641Z,388.50
2023-01-22T04:25:01.660Z,393.50
2023-01-22T04:26:01.679Z,398.90
2023-01-22T04:27:01.627Z,398.10
2023-01-22T04:28:01.604Z,428.00
2023-01-22T04:29:01.581Z,387.70
2023-01-22T04:30:01.584Z,432.70
2023-01-22T04:31:01.676Z,422.10
2023-01-22T04:32:01.584Z,414.80
2023-01-22T04:33:01.589Z,430.80
2023-01-22T04:34:01.557Z,409.40
2023-01-22T04:35:01.544Z,381.50
2023-01-22T04:36:01.564Z,309.10
2023-01-22T04:37:01.551Z,387.50
2023-01-22T04:38:01.488Z,414.40
2023-01-22T04:39:01.474Z,415.70
2023-01-22T04:40:01.470Z,430.20
2023-01-22T04:41:01.543Z,404.70
2023-01-22T04:42:01.453Z,379.20
2023-01-22T04:43:01.439Z,380.20
2023-01-22T04:44:01.426Z,384.40
2023-01-22T04:45:01.412Z,397.70
2023-01-22T04:46:01.403Z,416.70
2023-01-22T04:47:01.428Z,413.20
2023-01-22T04:48:01.365Z,405.60
2023-01-22T04:49:01.370Z,423.10
2023-01-22T04:50:01.348Z,418.80
2023-01-22T04:51:01.382Z,408.10
2023-01-22T04:52:01.364Z,426.10
2023-01-22T04:53:01.344Z,460.40
2023-01-22T04:54:01.306Z,276.70
2023-01-22T04:55:01.285Z,476.10
2023-01-22T04:56:01.288Z,462.70
2023-01-22T04:57:01.317Z,465.60
2023-01-22T04:58:01.279Z,404.10
2023-01-22T04:59:01.249Z,463.60
2023-01-22T05:00:01.248Z,444.60
2023-01-22T05:01:01.303Z,405.40
2023-01-22T05:02:01.263Z,411.60
2023-01-22T05:03:01.216Z,472.40
2023-01-22T05:04:01.195Z,434.20
2023-01-22T05:05:01.180Z,414.10
2023-01-22T05:06:01.166Z,335.60
2023-01-22T05:07:01.223Z,276.10
2023-01-22T05:08:01.145Z,265.20
2023-01-22T05:09:01.152Z,148.60
2023-01-22T05:10:01.125Z,166.90
2023-01-22T05:11:01.111Z,162.50
2023-01-22T05:12:01.148Z,164.90
2023-01-22T05:13:01.090Z,157.90
2023-01-22T05:14:01.106Z,164.30
2023-01-22T05:15:01.077Z,145.60
2023-01-22T05:16:01.141Z,139.90
2023-01-22T05:17:01.083Z,143.70
2023-01-22T05:18:01.035Z,176.00
2023-01-22T05:19:01.056Z,109.40
2023-01-22T05:20:01.005Z,98.40
2023-01-22T05:21:00.991Z,91.90
2023-01-22T05:22:01.044Z,101.00
2023-01-22T05:23:00.983Z,87.50
2023-01-22T05:24:00.959Z,216.20
2023-01-22T05:25:00.959Z,166.00
2023-01-22T05:26:00.944Z,454.90
2023-01-22T05:27:00.985Z,459.20
2023-01-22T05:28:00.932Z,499.30
2023-01-22T05:29:00.936Z,501.80
2023-01-22T05:30:00.896Z,491.90
2023-01-22T05:31:01.023Z,475.70
2023-01-22T05:32:00.927Z,468.70
2023-01-22T05:33:00.855Z,470.70
2023-01-22T05:34:00.869Z,479.70
2023-01-22T05:35:00.861Z,471.50
2023-01-22T05:36:00.856Z,487.00
2023-01-22T05:37:00.871Z,293.70
2023-01-22T05:38:00.808Z,113.00
2023-01-22T05:39:00.778Z,91.20
2023-01-22T05:40:00.791Z,134.90
2023-01-22T05:41:00.776Z,194.20
2023-01-22T05:42:00.805Z,166.30
2023-01-22T05:43:00.737Z,103.20
2023-01-22T05:44:00.741Z,256.00
2023-01-22T05:45:00.711Z,697.80
2023-01-22T05:46:00.756Z,447.30
2023-01-22T05:47:00.751Z,470.30
2023-01-22T05:48:00.699Z,489.00
2023-01-22T05:49:00.675Z,435.20
2023-01-22T05:50:00.667Z,453.90
2023-01-22T05:51:00.655Z,485.20
2023-01-22T05:52:00.687Z,463.50
2023-01-22T05:53:00.629Z,499.00
2023-01-22T05:54:00.634Z,479.90
2023-01-22T05:55:00.622Z,475.00
2023-01-22T05:56:00.610Z,499.20
2023-01-22T05:57:00.646Z,500.60
2023-01-22T05:58:00.565Z,529.00
2023-01-22T05:59:00.563Z,286.00
2023-01-22T06:00:00.575Z,101.50
2023-01-22T06:01:00.544Z,89.10
2023-01-22T06:02:00.583Z,149.20
2023-01-22T06:03:00.524Z,157.90
2023-01-22T06:04:00.541Z,150.80
2023-01-22T06:05:00.554Z,141.00
2023-01-22T06:06:00.491Z,131.40
2023-01-22T06:07:00.510Z,114.70
2023-01-22T06:08:00.479Z,106.40
2023-01-22T06:09:00.461Z,87.30
2023-01-22T06:10:00.452Z,124.70
2023-01-22T06:11:00.423Z,243.40
2023-01-22T06:12:00.472Z,712.30
2023-01-22T06:13:00.394Z,542.90
2023-01-22T06:14:00.406Z,649.60
2023-01-22T06:15:00.424Z,481.20
2023-01-22T06:16:00.442Z,525.50
2023-01-22T06:17:00.391Z,552.40
2023-01-22T06:18:00.349Z,527.10
2023-01-22T06:19:00.333Z,535.20
2023-01-22T06:20:00.345Z,522.10
2023-01-22T06:21:00.322Z,484.20
2023-01-22T06:22:00.351Z,526.80
2023-01-22T06:23:00.300Z,518.30
2023-01-22T06:24:00.295Z,515.50
2023-01-22T06:25:00.271Z,534.80
2023-01-22T06:26:00.284Z,520.40
2023-01-22T06:27:00.288Z,526.50
2023-01-22T06:28:00.230Z,530.30
2023-01-22T06:29:00.224Z,524.20
2023-01-22T06:30:00.220Z,536.50
2023-01-22T06:31:00.263Z,525.60
2023-01-22T06:32:00.240Z,536.60
2023-01-22T06:33:00.177Z,514.60
2023-01-22T06:34:00.173Z,504.70
2023-01-22T06:35:00.169Z,487.80
2023-01-22T06:36:00.154Z,480.70
2023-01-22T06:37:00.180Z,474.30
2023-01-22T06:38:00.145Z,488.60
2023-01-22T06:39:00.228Z,507.10
2023-01-22T06:40:00.142Z,486.50
2023-01-22T06:41:00.099Z,416.30
2023-01-22T06:42:00.115Z,492.70
2023-01-22T06:43:00.065Z,458.10
2023-01-22T06:44:00.048Z,448.60
2023-01-22T06:45:00.045Z,486.70
2023-01-22T06:46:00.071Z,458.00
2023-01-22T06:47:00.099Z,501.40
2023-01-22T06:48:00.000Z,473.50
2023-01-22T06:48:59.982Z,501.40
2023-01-22T06:49:59.994Z,507.00
2023-01-22T06:51:00.002Z,506.40
2023-01-22T06:52:00.005Z,486.30
2023-01-22T06:52:59.947Z,490.40
2023-01-22T06:53:59.936Z,480.40
2023-01-22T06:54:59.920Z,528.90
2023-01-22T06:55:59.915Z,516.00
2023-01-22T06:56:59.951Z,543.90
2023-01-22T06:57:59.891Z,509.50
2023-01-22T06:58:59.923Z,479.70
2023-01-22T06:59:59.882Z,539.60
2023-01-22T07:00:59.862Z,478.80
2023-01-22T07:02:00.003Z,502.80
2023-01-22T07:02:59.842Z,526.70
2023-01-22T07:03:59.914Z,521.90
2023-01-22T07:04:59.825Z,506.60
2023-01-22T07:05:59.814Z,524.10
2023-01-22T07:06:59.831Z,546.60
2023-01-22T07:07:59.762Z,536.50
2023-01-22T07:08:59.757Z,551.40
2023-01-22T07:09:59.772Z,536.60
2023-01-22T07:10:59.775Z,549.40
2023-01-22T07:11:59.731Z,533.10
2023-01-22T07:12:59.778Z,558.30
2023-01-22T07:13:59.711Z,571.00
2023-01-22T07:14:59.711Z,552.00
2023-01-22T07:15:59.792Z,574.50
2023-01-22T07:16:59.679Z,597.80
2023-01-22T07:17:59.703Z,572.50
2023-01-22T07:18:59.659Z,616.40
2023-01-22T07:19:59.664Z,601.90
2023-01-22T07:20:59.655Z,599.70
2023-01-22T07:21:59.627Z,613.60
2023-01-22T07:23:00.233Z,590.60
2023-01-22T07:23:59.607Z,604.90
2023-01-22T07:24:59.613Z,598.20
2023-01-22T07:25:59.580Z,582.90
2023-01-22T07:26:59.606Z,588.90
2023-01-22T07:27:59.603Z,595.10
2023-01-22T07:28:59.575Z,607.80
2023-01-22T07:29:59.531Z,612.60
2023-01-22T07:30:59.645Z,600.50
2023-01-22T07:31:59.506Z,613.10
2023-01-22T07:32:59.549Z,618.40
2023-01-22T07:33:59.473Z,613.30
2023-01-22T07:34:59.469Z,624.80
2023-01-22T07:35:59.456Z,622.00
2023-01-22T07:36:59.470Z,607.00
2023-01-22T07:37:59.493Z,623.50
2023-01-22T07:38:59.452Z,628.00
2023-01-22T07:39:59.416Z,623.30
2023-01-22T07:40:59.414Z,627.10
2023-01-22T07:41:59.399Z,632.50
2023-01-22T07:42:59.444Z,618.50
2023-01-22T07:43:59.375Z,636.30
2023-01-22T07:44:59.367Z,642.30
2023-01-22T07:45:59.363Z,639.40
2023-01-22T07:46:59.326Z,638.30
2023-01-22T07:47:59.380Z,602.10
2023-01-22T07:48:59.325Z,566.10
2023-01-22T07:49:59.291Z,504.80
2023-01-22T07:50:59.333Z,255.30
2023-01-22T07:51:59.290Z,70.50
2023-01-22T07:52:59.317Z,77.50
2023-01-22T07:53:59.242Z,97.40
2023-01-22T07:54:59.260Z,83.10
2023-01-22T07:55:59.251Z,77.80
2023-01-22T07:56:59.255Z,80.50
2023-01-22T07:57:59.261Z,188.40
2023-01-22T07:58:59.206Z,199.70
2023-01-22T07:59:59.208Z,194.50
2023-01-22T08:00:59.235Z,145.10
2023-01-22T08:02:00.269Z,104.00
2023-01-22T08:02:59.200Z,77.80
2023-01-22T08:03:59.148Z,96.20
2023-01-22T08:04:59.131Z,125.90
2023-01-22T08:05:59.108Z,139.00
2023-01-22T08:06:59.132Z,197.00
2023-01-22T08:07:59.152Z,153.80
2023-01-22T08:08:59.116Z,73.10
2023-01-22T08:09:59.081Z,72.80
2023-01-22T08:10:59.086Z,195.10
2023-01-22T08:11:59.048Z,215.90
2023-01-22T08:12:59.118Z,66.50
2023-01-22T08:13:59.093Z,67.20
2023-01-22T08:14:59.017Z,143.20
2023-01-22T08:15:59.152Z,226.60
2023-01-22T08:16:59.002Z,66.70
2023-01-22T08:17:59.073Z,64.10
2023-01-22T08:18:58.977Z,84.70
2023-01-22T08:19:59.002Z,149.80
2023-01-22T08:20:58.964Z,167.00
2023-01-22T08:21:58.927Z,159.50
2023-01-22T08:22:58.975Z,74.20
2023-01-22T08:23:58.942Z,88.10
2023-01-22T08:24:58.917Z,133.80
2023-01-22T08:25:58.902Z,239.10
2023-01-22T08:26:58.901Z,176.60
2023-01-22T08:27:58.936Z,187.40
2023-01-22T08:28:58.846Z,78.80
2023-01-22T08:29:58.836Z,71.80
2023-01-22T08:30:58.831Z,97.00
2023-01-22T08:31:59.004Z,215.90
2023-01-22T08:32:58.871Z,169.40
2023-01-22T08:33:58.831Z,92.20
2023-01-22T08:34:58.809Z,65.00
2023-01-22T08:35:58.774Z,162.00
2023-01-22T08:36:58.781Z,241.10
2023-01-22T08:37:58.808Z,198.60
2023-01-22T08:38:58.764Z,166.80
2023-01-22T08:39:58.731Z,85.60
2023-01-22T08:40:58.752Z,110.20
2023-01-22T08:41:58.703Z,129.50
2023-01-22T08:42:58.755Z,182.40
2023-01-22T08:43:58.686Z,259.80
2023-01-22T08:44:58.671Z,124.10
2023-01-22T08:45:58.684Z,92.20
2023-01-22T08:46:58.674Z,93.40
2023-01-22T08:47:58.692Z,241.30
2023-01-22T08:48:58.639Z,224.80
2023-01-22T08:49:58.623Z,120.30
2023-01-22T08:50:58.701Z,98.10
2023-01-22T08:51:58.609Z,99.10
2023-01-22T08:52:58.650Z,219.70
2023-01-22T08:53:58.577Z,219.40
2023-01-22T08:54:58.584Z,182.40
2023-01-22T08:55:58.645Z,69.70
2023-01-22T08:56:58.554Z,109.20
2023-01-22T08:57:58.560Z,224.30
2023-01-22T08:58:58.572Z,213.30
2023-01-22T09:00:01.341Z,136.60
2023-01-22T09:00:58.524Z,136.70
2023-01-22T09:01:58.531Z,89.40
2023-01-22T09:02:58.555Z,201.90
2023-01-22T09:03:58.475Z,266.10
2023-01-22T09:04:58.459Z,78.50
2023-01-22T09:05:58.448Z,109.30
2023-01-22T09:06:58.456Z,237.70
2023-01-22T09:07:58.475Z,282.40
2023-01-22T09:08:58.403Z,244.10
2023-01-22T09:09:58.389Z,216.60
2023-01-22T09:10:58.398Z,193.00
2023-01-22T09:11:58.372Z,235.40
2023-01-22T09:12:58.420Z,313.50
2023-01-22T09:13:58.375Z,309.70
2023-01-22T09:14:58.358Z,334.40
2023-01-22T09:15:58.623Z,164.40
2023-01-22T09:16:58.325Z,337.60
2023-01-22T09:17:58.345Z,397.60
2023-01-22T09:18:58.307Z,376.10
2023-01-22T09:19:58.304Z,391.00
2023-01-22T09:20:58.277Z,250.90
2023-01-22T09:21:58.300Z,336.70
2023-01-22T09:22:58.285Z,612.80
2023-01-22T09:23:58.237Z,844.50
2023-01-22T09:24:58.209Z,297.40
2023-01-22T09:25:58.215Z,254.30
2023-01-22T09:26:58.205Z,389.40
2023-01-22T09:27:58.247Z,544.90
2023-01-22T09:28:58.201Z,553.70
2023-01-22T09:29:58.174Z,299.10
2023-01-22T09:30:58.245Z,363.60
2023-01-22T09:31:58.211Z,490.20
2023-01-22T09:32:58.204Z,1079.40
2023-01-22T09:33:58.125Z,1867.20
2023-01-22T09:34:58.135Z,1122.40
2023-01-22T09:35:58.115Z,1758.40
2023-01-22T09:36:58.099Z,1999.90
2023-01-22T09:37:58.098Z,1999.90
2023-01-22T09:38:58.130Z,1999.90
2023-01-22T09:39:58.091Z,549.40
2023-01-22T09:40:58.055Z,386.90
2023-01-22T09:41:58.044Z,1999.90
2023-01-22T09:42:58.043Z,1999.90
2023-01-22T09:43:58.081Z,1999.90
2023-01-22T09:44:58.046Z,355.90
2023-01-22T09:45:58.016Z,461.80
2023-01-22T09:46:57.998Z,1999.90
2023-01-22T09:47:57.980Z,1999.90
2023-01-22T09:48:58.027Z,1999.90
2023-01-22T09:49:57.936Z,1999.90
2023-01-22T09:50:57.936Z,1999.90
2023-01-22T09:51:57.898Z,1999.90
2023-01-22T09:52:57.926Z,141.10
2023-01-22T09:53:57.946Z,107.10
2023-01-22T09:54:57.892Z,68.80
2023-01-22T09:55:57.866Z,75.90
2023-01-22T09:56:57.869Z,1999.90
2023-01-22T09:57:57.863Z,1999.90
2023-01-22T09:58:57.903Z,1999.90
2023-01-22T09:59:57.833Z,1999.90
2023-01-22T10:01:00.124Z,1999.90
2023-01-22T10:01:57.815Z,1999.90
2023-01-22T10:02:57.819Z,196.60
2023-01-22T10:03:57.832Z,136.50
2023-01-22T10:04:57.787Z,138.50
2023-01-22T10:05:57.798Z,125.30
2023-01-22T10:06:57.768Z,1999.90
2023-01-22T10:07:57.725Z,1999.90
2023-01-22T10:08:57.782Z,1999.90
2023-01-22T10:09:57.734Z,124.10
2023-01-22T10:10:57.757Z,82.70
2023-01-22T10:11:57.689Z,1999.90
2023-01-22T10:12:57.705Z,1999.90
2023-01-22T10:13:57.733Z,1999.90
2023-01-22T10:14:57.690Z,1999.90
2023-01-22T10:15:57.664Z,1999.90
2023-01-22T10:16:57.669Z,1999.90
2023-01-22T10:17:57.627Z,178.60
2023-01-22T10:18:57.660Z,89.20
2023-01-22T10:19:57.623Z,1999.90
2023-01-22T10:20:57.608Z,1999.90
2023-01-22T10:21:57.586Z,1999.90
2023-01-22T10:22:57.577Z,366.40
2023-01-22T10:23:57.611Z,1999.90
2023-01-22T10:24:57.561Z,1999.90
2023-01-22T10:25:57.572Z,1999.90
2023-01-22T10:26:57.538Z,158.50
2023-01-22T10:27:57.527Z,222.00
2023-01-22T10:28:57.561Z,183.50
2023-01-22T10:29:57.526Z,115.80
2023-01-22T10:30:57.552Z,1999.90
2023-01-22T10:31:57.565Z,1999.90
2023-01-22T10:32:57.481Z,1999.90
2023-01-22T10:33:57.518Z,1999.90
2023-01-22T10:34:57.455Z,1999.90
2023-01-22T10:35:57.445Z,1999.90
2023-01-22T10:36:57.412Z,1999.90
2023-01-22T10:37:57.433Z,318.70
2023-01-22T10:38:57.459Z,1999.90
2023-01-22T10:39:57.402Z,1999.90
2023-01-22T10:40:57.375Z,1999.90
2023-01-22T10:41:57.368Z,1999.90
2023-01-22T10:42:57.367Z,1999.90
2023-01-22T10:43:57.392Z,1999.90
2023-01-22T10:44:57.323Z,1999.90
2023-01-22T10:45:57.327Z,313.70
2023-01-22T10:46:57.315Z,1999.90
2023-01-22T10:47:57.290Z,1999.90
2023-01-22T10:48:57.336Z,1999.90
2023-01-22T10:49:57.270Z,1999.90
2023-01-22T10:50:57.283Z,1999.90
2023-01-22T10:51:57.242Z,234.90
2023-01-22T10:52:57.236Z,1999.90
2023-01-22T10:53:57.284Z,1999.90
2023-01-22T10:54:57.218Z,1999.90
2023-01-22T10:55:57.226Z,1999.90
2023-01-22T10:56:57.198Z,1999.90
2023-01-22T10:57:57.200Z,1999.90
2023-01-22T10:58:57.241Z,1999.90
2023-01-22T10:59:57.155Z,1999.90
2023-01-22T11:00:57.172Z,1999.90
2023-01-22T11:01:57.164Z,1999.90
2023-01-22T11:02:57.143Z,1999.90
2023-01-22T11:03:57.158Z,1999.90
2023-01-22T11:04:57.107Z,1999.90
2023-01-22T11:05:57.124Z,1999.90
2023-01-22T11:06:57.100Z,1999.90
2023-01-22T11:07:57.077Z,1999.90
2023-01-22T11:08:57.113Z,1999.90
2023-01-22T11:09:57.039Z,1999.90
2023-01-22T11:10:57.032Z,427.40
2023-01-22T11:11:57.022Z,1999.90
2023-01-22T11:12:59.324Z,1999.90
2023-01-22T11:13:57.047Z,1999.90
2023-01-22T11:14:56.994Z,1999.90
2023-01-22T11:15:57.074Z,1999.90
2023-01-22T11:16:56.982Z,1999.90
2023-01-22T11:17:56.975Z,301.60
2023-01-22T11:18:57.012Z,1999.90
2023-01-22T11:19:56.953Z,1999.90
2023-01-22T11:20:56.950Z,1999.90
2023-01-22T11:21:56.923Z,1999.90
2023-01-22T11:22:56.919Z,1999.90
2023-01-22T11:23:56.966Z,1999.90
2023-01-22T11:24:56.901Z,1999.90
2023-01-22T11:25:56.878Z,1999.90
2023-01-22T11:26:56.857Z,1999.90
2023-01-22T11:27:56.959Z,1999.90
2023-01-22T11:28:56.886Z,1999.90
2023-01-22T11:29:56.851Z,1999.90
2023-01-22T11:30:56.887Z,1999.90
2023-01-22T11:31:56.791Z,1999.90
2023-01-22T11:32:56.787Z,1999.90
2023-01-22T11:33:56.833Z,297.30
2023-01-22T11:34:56.783Z,189.70
2023-01-22T11:35:56.767Z,1999.90
2023-01-22T11:36:56.757Z,1999.90
2023-01-22T11:37:56.742Z,1999.90
2023-01-22T11:38:56.765Z,1999.90
2023-01-22T11:39:56.716Z,1999.90
2023-01-22T11:40:56.695Z,1999.90
2023-01-22T11:41:56.692Z,315.00
2023-01-22T11:42:56.686Z,193.20
2023-01-22T11:43:56.733Z,1999.90
2023-01-22T11:44:56.665Z,1999.90
2023-01-22T11:45:56.695Z,1999.90
2023-01-22T11:46:56.641Z,1999.90
2023-01-22T11:47:56.621Z,1999.90
2023-01-22T11:48:56.659Z,389.50
2023-01-22T11:49:56.607Z,289.80
2023-01-22T11:50:56.631Z,1999.90
2023-01-22T11:51:56.585Z,1999.90
2023-01-22T11:52:56.570Z,1999.90
2023-01-22T11:53:56.614Z,1999.90
2023-01-22T11:54:56.564Z,248.30
2023-01-22T11:55:56.560Z,183.40
2023-01-22T11:56:56.518Z,1999.90
2023-01-22T11:57:56.521Z,1999.90
2023-01-22T11:58:56.569Z,1999.90
2023-01-22T11:59:56.502Z,1999.90
2023-01-22T12:00:56.479Z,1999.90
2023-01-22T12:01:56.507Z,1999.90
2023-01-22T12:02:56.554Z,1999.90
2023-01-22T12:03:56.536Z,1999.90
2023-01-22T12:04:56.438Z,1999.90
2023-01-22T12:05:56.425Z,1999.90
2023-01-22T12:06:56.450Z,1999.90
2023-01-22T12:07:56.415Z,1999.90
2023-01-22T12:08:56.435Z,1999.90
2023-01-22T12:09:56.398Z,1999.90
2023-01-22T12:10:56.400Z,457.80
2023-01-22T12:11:56.380Z,239.10
2023-01-22T12:12:56.369Z,1999.90
2023-01-22T12:13:56.409Z,1999.90
2023-01-22T12:14:56.360Z,1999.90
2023-01-22T12:15:56.359Z,1999.90
2023-01-22T12:16:56.322Z,464.50
2023-01-22T12:17:56.310Z,292.50
2023-01-22T12:18:56.340Z,1999.90
2023-01-22T12:19:56.301Z,1999.90
2023-01-22T12:20:56.275Z,1999.90
2023-01-22T12:21:56.270Z,1999.90
2023-01-22T12:22:56.267Z,1999.90
2023-01-22T12:23:56.274Z,1999.90
2023-01-22T12:24:56.235Z,1999.90